Time;durP1;ratioP1;P1;durP2;ratioP2;P2;SDS_P1;SDS_P2;PMS_P1;PMS_P2;Temp;Humidity;BMP_temperature;BMP_pressure;BME280_temperature;BME280_humidity;BME280_pressure;Samples;Min_cycle;Max_cycle;Signal;HPM_P1;HPM_P2
2022/10/26 00:01:09;;;;;;;11.63;6.15;;;;;;;;;;6245152;22;20032;-77
2022/10/26 00:03:35;;;;;;;14.57;6.00;;;;;;;;;;6245089;22;20000;-79
2022/10/26 00:06:11;;;;;;;11.43;6.03;;;;;;;;;;6245037;22;20011;-78
2022/10/26 00:08:36;;;;;;;10.30;6.00;;;;;;;;;;6245038;22;20004;-80
2022/10/26 00:11:02;;;;;;;11.45;6.10;;;;;;;;;;6244797;22;20007;-78
2022/10/26 00:13:27;;;;;;;14.85;6.10;;;;;;;;;;6243290;23;20004;-78
2022/10/26 00:15:53;;;;;;;12.40;6.38;;;;;;;;;;6243507;23;20487;-79
2022/10/26 00:18:19;;;;;;;10.20;5.97;;;;;;;;;;6243048;23;20012;-80
2022/10/26 00:20:44;;;;;;;12.05;5.97;;;;;;;;;;6245073;23;20031;-79
2022/10/26 00:23:10;;;;;;;11.93;5.90;;;;;;;;;;6244696;22;20101;-79
2022/10/26 00:25:35;;;;;;;12.20;5.82;;;;;;;;;;6245186;23;20000;-81
2022/10/26 00:28:01;;;;;;;16.98;5.68;;;;;;;;;;6268539;22;20008;-80
2022/10/26 00:30:26;;;;;;;11.25;5.50;;;;;;;;;;6244771;23;20375;-79
2022/10/26 00:32:52;;;;;;;12.73;6.40;;;;;;;;;;6245366;23;20008;-80
2022/10/26 00:35:18;;;;;;;10.05;5.93;;;;;;;;;;6245118;22;20382;-79
2022/10/26 00:37:44;;;;;;;12.63;5.32;;;;;;;;;;6217918;23;20023;-80
2022/10/26 00:40:10;;;;;;;11.75;5.88;;;;;;;;;;6243513;23;20065;-78
2022/10/26 00:42:35;;;;;;;18.10;6.07;;;;;;;;;;6243963;23;20004;-81
2022/10/26 00:45:15;;;;;;;8.70;5.53;;;;;;;;;;6243263;23;20511;-79
2022/10/26 00:47:42;;;;;;;11.82;5.80;;;;;;;;;;6220608;23;20339;-80
2022/10/26 00:50:14;;;;;;;11.65;6.07;;;;;;;;;;6243557;23;20000;-78
2022/10/26 00:52:46;;;;;;;10.07;6.35;;;;;;;;;;6219164;23;20009;-79
2022/10/26 00:55:12;;;;;;;16.30;5.82;;;;;;;;;;6243308;23;19992;-80
2022/10/26 00:57:37;;;;;;;12.60;5.88;;;;;;;;;;6244878;23;20039;-78
2022/10/26 01:00:05;;;;;;;11.73;6.03;;;;;;;;;;6244928;23;20011;-81
2022/10/26 01:02:31;;;;;;;14.85;6.30;;;;;;;;;;6244976;22;20143;-79
2022/10/26 01:05:06;;;;;;;14.82;6.63;;;;;;;;;;6244653;22;19996;-79
2022/10/26 01:07:37;;;;;;;14.77;6.50;;;;;;;;;;6243535;23;20004;-81
2022/10/26 01:10:03;;;;;;;11.55;6.43;;;;;;;;;;6243125;23;20011;-81
2022/10/26 01:12:35;;;;;;;9.43;6.55;;;;;;;;;;6245564;23;20000;-82
2022/10/26 01:15:00;;;;;;;11.00;6.88;;;;;;;;;;6245855;22;20067;-80
2022/10/26 01:17:55;;;;;;;11.05;6.50;;;;;;;;;;6243274;23;20366;-80
2022/10/26 01:20:23;;;;;;;11.35;6.55;;;;;;;;;;6217586;23;20026;-81
2022/10/26 01:23:29;;;;;;;13.57;6.95;;;;;;;;;;6244339;23;20004;-79
2022/10/26 01:26:22;;;;;;;11.18;6.72;;;;;;;;;;6152825;23;20437;-80
2022/10/26 01:29:14;;;;;;;11.73;7.13;;;;;;;;;;6128634;23;20006;-79
2022/10/26 01:31:42;;;;;;;11.93;7.00;;;;;;;;;;6230785;22;20008;-80
2022/10/26 01:34:11;;;;;;;11.50;7.13;;;;;;;;;;6193141;23;20054;-81
2022/10/26 01:36:46;;;;;;;15.80;7.15;;;;;;;;;;6192957;23;20440;-79
2022/10/26 01:39:20;;;;;;;12.27;7.38;;;;;;;;;;6242947;23;20035;-80
2022/10/26 01:41:50;;;;;;;17.73;8.60;;;;;;;;;;6243056;23;20011;-79
2022/10/26 01:44:23;;;;;;;14.07;7.63;;;;;;;;;;6244556;22;19996;-80
2022/10/26 01:46:49;;;;;;;12.27;8.25;;;;;;;;;;6218995;23;20427;-78
2022/10/26 01:49:16;;;;;;;14.98;8.00;;;;;;;;;;6217988;23;20427;-78
2022/10/26 01:51:42;;;;;;;14.52;7.57;;;;;;;;;;6217587;23;20023;-79
2022/10/26 01:54:08;;;;;;;13.80;7.70;;;;;;;;;;6242832;23;19996;-78
2022/10/26 01:56:40;;;;;;;12.45;7.80;;;;;;;;;;6244187;22;20103;-78
2022/10/26 01:59:05;;;;;;;11.23;7.88;;;;;;;;;;6244575;22;19996;-79
2022/10/26 02:01:50;;;;;;;13.57;7.53;;;;;;;;;;6244550;22;20343;-79
2022/10/26 02:04:38;;;;;;;12.32;8.23;;;;;;;;;;6243233;23;20001;-79
2022/10/26 02:07:25;;;;;;;14.00;7.68;;;;;;;;;;6242950;23;20415;-79
2022/10/26 02:10:29;;;;;;;12.82;8.20;;;;;;;;;;6244619;23;20387;-80
2022/10/26 02:13:03;;;;;;;13.27;8.32;;;;;;;;;;6152105;23;20006;-81
2022/10/26 02:15:34;;;;;;;15.13;8.27;;;;;;;;;;6231850;22;20408;-80
2022/10/26 02:18:03;;;;;;;14.02;9.00;;;;;;;;;;6245313;22;20005;-79
2022/10/26 02:20:37;;;;;;;13.38;8.98;;;;;;;;;;6244777;22;19996;-78
2022/10/26 02:23:04;;;;;;;19.80;8.70;;;;;;;;;;6247192;22;20010;-80
2022/10/26 02:25:31;;;;;;;16.00;9.40;;;;;;;;;;6220071;23;20007;-80
2022/10/26 02:28:02;;;;;;;11.88;8.48;;;;;;;;;;6246858;22;20012;-79
2022/10/26 02:30:27;;;;;;;16.13;8.75;;;;;;;;;;6245388;23;20003;-78
2022/10/26 02:32:54;;;;;;;13.27;8.68;;;;;;;;;;6247051;23;20348;-79
2022/10/26 02:35:22;;;;;;;14.70;8.70;;;;;;;;;;6246567;22;20004;-79
2022/10/26 02:37:47;;;;;;;15.20;8.57;;;;;;;;;;6220384;23;20008;-78
2022/10/26 02:40:15;;;;;;;15.27;8.75;;;;;;;;;;6220203;23;20008;-79
2022/10/26 02:42:41;;;;;;;12.48;7.97;;;;;;;;;;6221787;23;19996;-80
2022/10/26 02:45:09;;;;;;;13.35;8.23;;;;;;;;;;6220487;23;20079;-79
2022/10/26 02:47:34;;;;;;;14.95;8.70;;;;;;;;;;6220254;23;20075;-80
2022/10/26 02:50:00;;;;;;;13.80;8.02;;;;;;;;;;6246193;22;20015;-78
2022/10/26 02:52:55;;;;;;;14.75;7.97;;;;;;;;;;6244952;23;20031;-79
2022/10/26 02:55:26;;;;;;;12.85;8.23;;;;;;;;;;6210988;22;20411;-78
2022/10/26 02:57:57;;;;;;;13.73;8.52;;;;;;;;;;6245554;23;20019;-78
2022/10/26 03:00:23;;;;;;;12.10;8.43;;;;;;;;;;6220572;23;20089;-80
2022/10/26 03:02:56;;;;;;;15.48;8.73;;;;;;;;;;6248317;23;20000;-79
2022/10/26 03:05:25;;;;;;;12.55;8.50;;;;;;;;;;6247402;22;20082;-79
2022/10/26 03:07:51;;;;;;;13.90;8.95;;;;;;;;;;6249743;22;20000;-81
2022/10/26 03:10:16;;;;;;;12.23;8.75;;;;;;;;;;6250033;22;20017;-79
2022/10/26 03:12:52;;;;;;;20.77;10.25;;;;;;;;;;6258056;23;20063;-79
2022/10/26 03:15:18;;;;;;;16.10;9.02;;;;;;;;;;6263894;22;20003;-79
2022/10/26 03:17:44;;;;;;;14.13;8.80;;;;;;;;;;6259872;23;20000;-79
2022/10/26 03:20:11;;;;;;;13.77;8.85;;;;;;;;;;6259187;23;20000;-78
2022/10/26 03:22:37;;;;;;;13.95;8.95;;;;;;;;;;6234025;23;20024;-79
2022/10/26 03:25:03;;;;;;;15.23;9.20;;;;;;;;;;6246931;22;20001;-79
2022/10/26 03:27:29;;;;;;;13.25;8.38;;;;;;;;;;6219155;23;20008;-79
2022/10/26 03:29:56;;;;;;;13.15;8.90;;;;;;;;;;6244045;23;20097;-78
2022/10/26 03:32:22;;;;;;;19.90;9.30;;;;;;;;;;6245596;22;20457;-78
2022/10/26 03:34:48;;;;;;;14.25;9.32;;;;;;;;;;6245567;22;19996;-79
2022/10/26 03:37:16;;;;;;;14.65;9.07;;;;;;;;;;6245727;22;20007;-78
2022/10/26 03:39:47;;;;;;;14.18;9.13;;;;;;;;;;6245528;22;20000;-80
2022/10/26 03:42:13;;;;;;;16.42;9.43;;;;;;;;;;6269488;22;20015;-78
2022/10/26 03:44:39;;;;;;;15.98;9.45;;;;;;;;;;6269176;22;20004;-79
2022/10/26 03:47:04;;;;;;;14.20;9.52;;;;;;;;;;6245459;23;20061;-78
2022/10/26 03:50:18;;;;;;;17.83;8.82;;;;;;;;;;6243924;23;20484;-79
2022/10/26 03:52:43;;;;;;;12.02;8.07;;;;;;;;;;6243725;23;20083;-78
2022/10/26 03:55:09;;;;;;;9.80;7.32;;;;;;;;;;6218801;23;20796;-80
2022/10/26 03:57:40;;;;;;;11.55;6.50;;;;;;;;;;6243958;23;20390;-77
2022/10/26 04:00:06;;;;;;;12.10;6.93;;;;;;;;;;6218949;23;20348;-79
2022/10/26 04:02:32;;;;;;;12.60;7.10;;;;;;;;;;6243643;23;20031;-79
2022/10/26 04:05:07;;;;;;;11.80;6.93;;;;;;;;;;6245016;23;20000;-78
2022/10/26 04:07:32;;;;;;;12.82;6.30;;;;;;;;;;6246425;22;19996;-80
2022/10/26 04:09:58;;;;;;;13.73;6.90;;;;;;;;;;6244580;23;20008;-78
2022/10/26 04:12:23;;;;;;;13.10;6.38;;;;;;;;;;6243491;23;20097;-78
2022/10/26 04:14:49;;;;;;;12.20;6.53;;;;;;;;;;6245155;23;20074;-77
2022/10/26 04:17:15;;;;;;;11.82;6.43;;;;;;;;;;6242650;23;20007;-78
2022/10/26 04:19:42;;;;;;;15.07;7.18;;;;;;;;;;6245132;23;20012;-79
2022/10/26 04:22:07;;;;;;;18.33;6.82;;;;;;;;;;6243396;23;20415;-79
2022/10/26 04:24:43;;;;;;;12.43;6.70;;;;;;;;;;6244751;22;20083;-77
2022/10/26 04:27:08;;;;;;;12.50;7.18;;;;;;;;;;6218878;23;20016;-77
2022/10/26 04:29:34;;;;;;;12.20;7.20;;;;;;;;;;6245566;23;20062;-80
2022/10/26 04:31:59;;;;;;;12.93;6.95;;;;;;;;;;6245137;23;20004;-79
2022/10/26 04:34:25;;;;;;;16.17;7.35;;;;;;;;;;6244961;23;20004;-79
2022/10/26 04:36:50;;;;;;;15.65;8.02;;;;;;;;;;6269171;22;20342;-79
2022/10/26 04:39:16;;;;;;;12.88;7.63;;;;;;;;;;6245321;23;20327;-80
2022/10/26 04:41:41;;;;;;;17.27;6.75;;;;;;;;;;6244846;22;20035;-80
2022/10/26 04:44:07;;;;;;;11.93;6.93;;;;;;;;;;6245022;23;20000;-79
2022/10/26 04:46:32;;;;;;;16.63;7.30;;;;;;;;;;6244571;23;20320;-78
2022/10/26 04:49:10;;;;;;;17.85;6.55;;;;;;;;;;6245343;23;20000;-81
2022/10/26 04:51:35;;;;;;;11.90;6.50;;;;;;;;;;6244097;23;20004;-80
2022/10/26 04:54:02;;;;;;;14.75;7.00;;;;;;;;;;6245402;23;20035;-76
2022/10/26 04:56:28;;;;;;;10.57;6.97;;;;;;;;;;6245342;22;20423;-79
2022/10/26 04:58:53;;;;;;;15.90;7.68;;;;;;;;;;6244930;22;20054;-79
2022/10/26 05:01:19;;;;;;;13.18;7.15;;;;;;;;;;6245272;23;20075;-79
2022/10/26 05:03:48;;;;;;;13.98;8.10;;;;;;;;;;6245425;23;20035;-79
2022/10/26 05:06:14;;;;;;;17.75;8.23;;;;;;;;;;6246501;22;19996;-80
2022/10/26 05:08:39;;;;;;;20.08;8.80;;;;;;;;;;6245374;23;20033;-79
2022/10/26 05:11:04;;;;;;;20.63;9.43;;;;;;;;;;6244894;23;20038;-79
2022/10/26 05:13:30;;;;;;;16.25;8.80;;;;;;;;;;6244191;23;20647;-78
2022/10/26 05:15:55;;;;;;;18.25;9.02;;;;;;;;;;6244277;23;20000;-80
2022/10/26 05:18:21;;;;;;;18.05;9.90;;;;;;;;;;6244254;23;20011;-78
2022/10/26 05:20:48;;;;;;;18.25;9.95;;;;;;;;;;6244743;23;20007;-79
2022/10/26 05:23:17;;;;;;;19.73;9.77;;;;;;;;;;6244419;22;20137;-78
2022/10/26 05:25:43;;;;;;;14.57;9.65;;;;;;;;;;6244274;23;20000;-77
2022/10/26 05:28:10;;;;;;;26.08;9.93;;;;;;;;;;6243812;22;20055;-78
2022/10/26 05:30:35;;;;;;;18.23;9.70;;;;;;;;;;6244546;22;20079;-78
2022/10/26 05:33:02;;;;;;;18.58;9.68;;;;;;;;;;6244300;23;20005;-78
2022/10/26 05:35:27;;;;;;;17.48;10.15;;;;;;;;;;6244402;22;19996;-79
2022/10/26 05:37:53;;;;;;;23.92;10.43;;;;;;;;;;6243160;23;20098;-78
2022/10/26 05:40:18;;;;;;;17.17;9.35;;;;;;;;;;6244413;23;20458;-78
2022/10/26 05:42:44;;;;;;;25.63;9.38;;;;;;;;;;6242808;23;20007;-78
2022/10/26 05:45:10;;;;;;;21.58;9.93;;;;;;;;;;6244629;22;20084;-78
2022/10/26 05:47:40;;;;;;;19.23;10.02;;;;;;;;;;6244454;23;20004;-79
2022/10/26 05:50:06;;;;;;;19.42;9.70;;;;;;;;;;6242835;23;20032;-78
2022/10/26 05:52:54;;;;;;;17.77;9.77;;;;;;;;;;6244470;23;20000;-79
2022/10/26 05:55:20;;;;;;;19.23;10.52;;;;;;;;;;6245276;22;20424;-80
2022/10/26 05:57:46;;;;;;;26.17;10.75;;;;;;;;;;6246012;22;19996;-79
2022/10/26 06:00:17;;;;;;;20.38;10.77;;;;;;;;;;6244632;23;20000;-78
2022/10/26 06:03:04;;;;;;;18.13;9.77;;;;;;;;;;6246279;23;20034;-78
2022/10/26 06:05:37;;;;;;;23.30;10.20;;;;;;;;;;6245699;23;20024;-78
2022/10/26 06:08:07;;;;;;;18.23;9.57;;;;;;;;;;6245914;22;20000;-79
2022/10/26 06:10:33;;;;;;;18.30;9.77;;;;;;;;;;6245091;23;20098;-79
2022/10/26 06:12:58;;;;;;;17.95;10.25;;;;;;;;;;6246366;22;20001;-78
2022/10/26 06:15:24;;;;;;;17.90;9.95;;;;;;;;;;6246761;22;20485;-79
2022/10/26 06:17:53;;;;;;;18.15;10.15;;;;;;;;;;6246681;23;20057;-79
2022/10/26 06:20:50;;;;;;;17.65;9.40;;;;;;;;;;6246890;22;20008;-78
2022/10/26 06:23:36;;;;;;;23.10;11.18;;;;;;;;;;6243997;23;20429;-78
2022/10/26 06:26:04;;;;;;;20.50;9.55;;;;;;;;;;6222563;23;20019;-77
2022/10/26 06:28:32;;;;;;;25.58;9.85;;;;;;;;;;6244681;23;20004;-78
2022/10/26 06:30:58;;;;;;;44.83;10.07;;;;;;;;;;6246116;23;20032;-78
2022/10/26 06:33:23;;;;;;;26.15;9.48;;;;;;;;;;6245037;23;20010;-79
2022/10/26 06:36:02;;;;;;;18.58;9.00;;;;;;;;;;6245631;23;20071;-79
2022/10/26 06:38:28;;;;;;;41.33;10.27;;;;;;;;;;6220665;23;20054;-79
2022/10/26 06:40:54;;;;;;;19.25;8.70;;;;;;;;;;6220603;23;20332;-80
2022/10/26 06:43:25;;;;;;;16.92;8.85;;;;;;;;;;6220274;23;20008;-79
2022/10/26 06:46:04;;;;;;;;;;;;;;;;;;6248492;22;20069;-79
2022/10/26 06:48:29;;;;;;;25.08;9.15;;;;;;;;;;6245301;23;19950;-79
2022/10/26 06:50:55;;;;;;;16.00;8.48;;;;;;;;;;6245480;23;20008;-80
2022/10/26 06:53:32;;;;;;;19.90;9.30;;;;;;;;;;6247977;22;20000;-78
2022/10/26 06:55:58;;;;;;;22.02;9.80;;;;;;;;;;6220869;23;20481;-80
2022/10/26 06:58:26;;;;;;;17.83;9.38;;;;;;;;;;6249722;22;20000;-79
2022/10/26 07:00:53;;;;;;;21.35;10.57;;;;;;;;;;6196788;23;20008;-78
2022/10/26 07:03:19;;;;;;;21.00;10.00;;;;;;;;;;6247396;22;20000;-79
2022/10/26 07:05:44;;;;;;;24.17;9.68;;;;;;;;;;6247736;23;20011;-79
2022/10/26 07:08:10;;;;;;;26.13;9.80;;;;;;;;;;6244993;23;20007;-80
2022/10/26 07:10:38;;;;;;;20.02;8.95;;;;;;;;;;6245546;22;20604;-78
2022/10/26 07:13:06;;;;;;;20.98;8.95;;;;;;;;;;6270798;22;20004;-79
2022/10/26 07:15:33;;;;;;;18.33;7.88;;;;;;;;;;6246483;22;20000;-79
2022/10/26 07:17:59;;;;;;;16.15;7.45;;;;;;;;;;6245030;23;20004;-79
2022/10/26 07:20:24;;;;;;;14.27;7.40;;;;;;;;;;6244887;23;20011;-79
2022/10/26 07:22:53;;;;;;;14.35;6.88;;;;;;;;;;6244763;23;20074;-79
2022/10/26 07:25:19;;;;;;;11.82;6.60;;;;;;;;;;6244699;22;20012;-79
2022/10/26 07:27:45;;;;;;;14.18;6.55;;;;;;;;;;6244641;22;20008;-78
2022/10/26 07:30:10;;;;;;;20.48;7.22;;;;;;;;;;6243962;23;20427;-80
2022/10/26 07:32:36;;;;;;;15.35;6.00;;;;;;;;;;6242353;23;20008;-80
2022/10/26 07:35:01;;;;;;;14.00;6.68;;;;;;;;;;6243889;23;20004;-78
2022/10/26 07:37:27;;;;;;;19.25;7.65;;;;;;;;;;6244576;23;20004;-78
2022/10/26 07:39:52;;;;;;;15.10;8.20;;;;;;;;;;6245779;23;20015;-78
2022/10/26 07:42:18;;;;;;;11.88;5.97;;;;;;;;;;6246812;23;20000;-79
2022/10/26 07:44:43;;;;;;;12.48;6.28;;;;;;;;;;6221390;23;20067;-80
2022/10/26 07:47:09;;;;;;;10.07;6.03;;;;;;;;;;6247728;23;20058;-81
2022/10/26 07:49:36;;;;;;;7.90;5.60;;;;;;;;;;6246220;23;20087;-78
2022/10/26 07:52:03;;;;;;;11.35;6.20;;;;;;;;;;6245574;23;20004;-80
2022/10/26 07:54:28;;;;;;;18.27;5.93;;;;;;;;;;6246463;22;20090;-80
2022/10/26 07:56:54;;;;;;;17.83;6.68;;;;;;;;;;6245939;23;20051;-80
2022/10/26 07:59:19;;;;;;;7.70;5.57;;;;;;;;;;6245416;23;20000;-80
2022/10/26 08:01:45;;;;;;;11.30;6.07;;;;;;;;;;6245437;23;20057;-79
2022/10/26 08:04:10;;;;;;;10.90;6.05;;;;;;;;;;6246111;23;20000;-80
2022/10/26 08:06:35;;;;;;;12.18;6.50;;;;;;;;;;6246227;23;20038;-79
2022/10/26 08:09:01;;;;;;;10.50;6.57;;;;;;;;;;6245245;23;20010;-80
2022/10/26 08:11:26;;;;;;;11.73;6.13;;;;;;;;;;6243990;23;20007;-79
2022/10/26 08:13:52;;;;;;;12.90;5.38;;;;;;;;;;6244065;23;20000;-79
2022/10/26 08:16:18;;;;;;;9.10;4.45;;;;;;;;;;6245518;23;20023;-79
2022/10/26 08:18:43;;;;;;;10.30;4.63;;;;;;;;;;6245524;23;20008;-80
2022/10/26 08:21:10;;;;;;;18.17;4.75;;;;;;;;;;6243416;23;20023;-79
2022/10/26 08:23:36;;;;;;;8.15;4.60;;;;;;;;;;6244434;22;20004;-79
2022/10/26 08:26:01;;;;;;;12.20;4.60;;;;;;;;;;6244819;22;20007;-79
2022/10/26 08:28:27;;;;;;;14.38;5.63;;;;;;;;;;6244973;23;20493;-80
2022/10/26 08:30:53;;;;;;;16.13;10.00;;;;;;;;;;6244839;22;20011;-79
2022/10/26 08:33:18;;;;;;;10.18;6.95;;;;;;;;;;6244194;23;20007;-79
2022/10/26 08:35:44;;;;;;;12.88;5.03;;;;;;;;;;6245742;23;20127;-80
2022/10/26 08:38:09;;;;;;;10.70;4.82;;;;;;;;;;6245593;23;20334;-79
2022/10/26 08:40:39;;;;;;;8.32;4.03;;;;;;;;;;6245274;23;20529;-79
2022/10/26 08:43:35;;;;;;;7.25;3.88;;;;;;;;;;6247485;22;20447;-81
2022/10/26 08:46:10;;;;;;;8.35;3.70;;;;;;;;;;6246691;22;20024;-80
2022/10/26 08:48:40;;;;;;;9.10;4.35;;;;;;;;;;6221096;23;20383;-78
2022/10/26 08:51:16;;;;;;;;;;;;;;;;;;6224907;23;20026;-79
2022/10/26 08:53:46;;;;;;;8.60;4.30;;;;;;;;;;6245246;22;20327;-79
2022/10/26 08:56:32;;;;;;;12.40;3.92;;;;;;;;;;6244184;23;20003;-78
2022/10/26 08:59:15;;;;;;;8.00;3.60;;;;;;;;;;6243776;23;20007;-78
2022/10/26 09:01:40;;;;;;;5.03;3.70;;;;;;;;;;6221744;23;20000;-79
2022/10/26 09:04:09;;;;;;;6.95;4.15;;;;;;;;;;6245345;23;20027;-79
2022/10/26 09:06:58;;;;;;;14.07;4.20;;;;;;;;;;6218209;23;20027;-79
2022/10/26 09:09:44;;;;;;;5.90;3.85;;;;;;;;;;6245422;22;20051;-80
2022/10/26 09:12:31;;;;;;;7.43;4.32;;;;;;;;;;6244629;23;20079;-79
2022/10/26 09:15:21;;;;;;;11.27;5.20;;;;;;;;;;6222630;23;20004;-79
2022/10/26 09:17:58;;;;;;;;;;;;;;;;;;6246224;23;20035;-79
2022/10/26 09:20:39;;;;;;;6.60;3.70;;;;;;;;;;6244244;23;19907;-80
2022/10/26 09:23:15;;;;;;;5.80;3.80;;;;;;;;;;6245894;23;20091;-79
2022/10/26 09:25:40;;;;;;;10.27;4.25;;;;;;;;;;6244456;23;20086;-80
2022/10/26 09:28:13;;;;;;;7.28;3.90;;;;;;;;;;6244623;22;20008;-80
2022/10/26 09:30:38;;;;;;;12.95;3.97;;;;;;;;;;6244095;23;20431;-79
2022/10/26 09:33:16;;;;;;;8.20;3.83;;;;;;;;;;6247812;22;20030;-80
2022/10/26 09:36:00;;;;;;;6.80;4.20;;;;;;;;;;6245871;23;20007;-79
2022/10/26 09:38:29;;;;;;;7.78;3.33;;;;;;;;;;6245825;23;20000;-79
2022/10/26 09:40:57;;;;;;;7.40;3.58;;;;;;;;;;6247584;22;20023;-79
2022/10/26 09:43:32;;;;;;;5.68;3.17;;;;;;;;;;6245719;23;20046;-81
2022/10/26 09:45:57;;;;;;;11.43;4.10;;;;;;;;;;6247306;22;20027;-80
2022/10/26 09:48:59;;;;;;;6.78;3.95;;;;;;;;;;6248225;23;20439;-79
2022/10/26 09:51:26;;;;;;;49.45;25.48;;;;;;;;;;6131441;23;20010;-82
2022/10/26 09:53:52;;;;;;;9.45;3.88;;;;;;;;;;6223789;23;20000;-80
2022/10/26 09:56:18;;;;;;;5.90;3.20;;;;;;;;;;6247133;23;20008;-79
2022/10/26 09:59:00;;;;;;;7.22;2.95;;;;;;;;;;6220424;23;20004;-80
2022/10/26 10:01:26;;;;;;;4.75;2.55;;;;;;;;;;6222859;23;20007;-79
2022/10/26 10:04:12;;;;;;;8.05;3.35;;;;;;;;;;6246245;23;20004;-80
2022/10/26 10:06:41;;;;;;;8.88;2.90;;;;;;;;;;6230609;23;20458;-80
2022/10/26 10:09:13;;;;;;;7.20;2.85;;;;;;;;;;6247599;22;20546;-80
2022/10/26 10:11:55;;;;;;;6.82;2.70;;;;;;;;;;6245811;23;20004;-80
2022/10/26 10:14:42;;;;;;;6.00;2.95;;;;;;;;;;6245960;23;20000;-81
2022/10/26 10:17:18;;;;;;;4.53;2.65;;;;;;;;;;6245796;23;20011;-80
2022/10/26 10:19:44;;;;;;;10.00;3.30;;;;;;;;;;6246152;23;20011;-80
2022/10/26 10:22:18;;;;;;;5.75;3.00;;;;;;;;;;6246574;23;20000;-80
2022/10/26 10:25:02;;;;;;;5.50;3.15;;;;;;;;;;6246812;23;20004;-82
2022/10/26 10:27:29;;;;;;;9.27;2.85;;;;;;;;;;6247625;22;20051;-80
2022/10/26 10:29:55;;;;;;;7.72;2.78;;;;;;;;;;6247789;22;20008;-80
2022/10/26 10:32:26;;;;;;;10.27;4.45;;;;;;;;;;6222654;23;20454;-79
2022/10/26 10:34:55;;;;;;;5.90;2.83;;;;;;;;;;6260254;22;20004;-80
2022/10/26 10:37:33;;;;;;;4.93;2.92;;;;;;;;;;6257491;23;20000;-81
2022/10/26 10:40:00;;;;;;;6.85;2.85;;;;;;;;;;6250262;22;20000;-81
2022/10/26 10:42:36;;;;;;;8.02;3.03;;;;;;;;;;6246081;23;20092;-80
2022/10/26 10:45:02;;;;;;;4.88;3.10;;;;;;;;;;6247059;22;20000;-81
2022/10/26 10:47:32;;;;;;;5.57;2.40;;;;;;;;;;6244746;23;20360;-80
2022/10/26 10:50:18;;;;;;;4.07;2.50;;;;;;;;;;6247572;22;20012;-80
2022/10/26 10:52:44;;;;;;;4.70;2.80;;;;;;;;;;6221665;23;20008;-81
2022/10/26 10:55:15;;;;;;;6.53;2.88;;;;;;;;;;6246283;23;20015;-80
2022/10/26 10:57:49;;;;;;;7.60;2.72;;;;;;;;;;6247598;22;20006;-81
2022/10/26 11:00:14;;;;;;;15.50;2.80;;;;;;;;;;6246156;23;20350;-80
2022/10/26 11:02:56;;;;;;;8.63;2.70;;;;;;;;;;6219368;23;20007;-80
2022/10/26 11:06:03;;;;;;;4.82;2.47;;;;;;;;;;6246364;22;20008;-80
2022/10/26 11:08:50;;;;;;;5.78;2.67;;;;;;;;;;6153019;23;20025;-81
2022/10/26 11:11:39;;;;;;;5.03;2.45;;;;;;;;;;6236595;23;20004;-80
2022/10/26 11:14:07;;;;;;;3.47;2.40;;;;;;;;;;6222618;23;20019;-80
2022/10/26 11:16:44;;;;;;;4.55;2.55;;;;;;;;;;6243931;23;20007;-81
2022/10/26 11:19:29;;;;;;;5.45;2.40;;;;;;;;;;6219287;23;20008;-81
2022/10/26 11:21:55;;;;;;;5.60;2.40;;;;;;;;;;6246228;22;20000;-81
2022/10/26 11:24:40;;;;;;;5.13;2.33;;;;;;;;;;6245647;23;20434;-80
2022/10/26 11:27:40;;;;;;;3.75;2.35;;;;;;;;;;6244421;23;20004;-80
2022/10/26 11:30:08;;;;;;;5.80;2.47;;;;;;;;;;6245713;23;20107;-81
2022/10/26 11:32:36;;;;;;;7.03;5.22;;;;;;;;;;6219528;23;20079;-81
2022/10/26 11:35:15;;;;;;;28.30;15.73;;;;;;;;;;6245552;22;20000;-80
2022/10/26 11:38:02;;;;;;;3.58;2.50;;;;;;;;;;6245682;22;20008;-80
2022/10/26 11:40:39;;;;;;;5.90;2.22;;;;;;;;;;6245438;23;20008;-80
2022/10/26 11:43:39;;;;;;;5.40;2.60;;;;;;;;;;6245572;23;19996;-83
2022/10/26 11:46:17;;;;;;;4.83;2.30;;;;;;;;;;6221455;23;20005;-81
2022/10/26 11:49:01;;;;;;;3.47;2.03;;;;;;;;;;6244958;22;20038;-82
2022/10/26 11:51:35;;;;;;;5.20;2.15;;;;;;;;;;6219251;23;20015;-81
2022/10/26 11:54:06;;;;;;;2.38;2.00;;;;;;;;;;6243234;23;20028;-82
2022/10/26 11:56:41;;;;;;;4.18;2.10;;;;;;;;;;6242458;23;20008;-81
2022/10/26 11:59:27;;;;;;;5.30;2.10;;;;;;;;;;6243814;23;20308;-82
2022/10/26 12:02:13;;;;;;;8.02;1.85;;;;;;;;;;6222553;23;20423;-82
2022/10/26 12:04:38;;;;;;;3.88;1.80;;;;;;;;;;6243454;23;20058;-81
2022/10/26 12:07:09;;;;;;;3.10;1.65;;;;;;;;;;6243673;23;20012;-81
2022/10/26 12:09:36;;;;;;;5.43;2.13;;;;;;;;;;6245429;22;20008;-80
2022/10/26 12:12:08;;;;;;;4.50;1.60;;;;;;;;;;6218200;23;20011;-80
2022/10/26 12:14:43;;;;;;;3.03;1.70;;;;;;;;;;6218134;23;20107;-81
2022/10/26 12:17:10;;;;;;;1.92;1.48;;;;;;;;;;6245011;23;20095;-81
2022/10/26 12:19:44;;;;;;;5.32;1.90;;;;;;;;;;6244751;22;20078;-82
2022/10/26 12:22:11;;;;;;;14.93;1.83;;;;;;;;;;6243461;23;20015;-80
2022/10/26 12:24:42;;;;;;;4.63;1.83;;;;;;;;;;6243169;23;20011;-82
2022/10/26 12:27:28;;;;;;;4.85;2.00;;;;;;;;;;6243257;23;20031;-80
2022/10/26 12:30:12;;;;;;;4.35;1.90;;;;;;;;;;6243185;23;20008;-81
2022/10/26 12:32:40;;;;;;;9.20;2.05;;;;;;;;;;6245159;22;19996;-80
2022/10/26 12:35:28;;;;;;;4.82;1.92;;;;;;;;;;6244782;23;20460;-79
2022/10/26 12:37:54;;;;;;;4.50;1.80;;;;;;;;;;6244665;22;20008;-80
2022/10/26 12:40:32;;;;;;;4.57;2.10;;;;;;;;;;6217888;23;20008;-81
2022/10/26 12:43:12;;;;;;;9.68;2.50;;;;;;;;;;6244374;22;20003;-82
2022/10/26 12:45:38;;;;;;;5.57;2.20;;;;;;;;;;6244401;22;20004;-82
2022/10/26 12:48:04;;;;;;;5.68;1.50;;;;;;;;;;6244750;22;19996;-81
2022/10/26 12:50:29;;;;;;;2.25;1.40;;;;;;;;;;6243248;23;20040;-81
2022/10/26 12:52:58;;;;;;;1.85;1.20;;;;;;;;;;6243581;23;20024;-81
2022/10/26 12:56:05;;;;;;;2.08;1.40;;;;;;;;;;6217995;23;20083;-81
2022/10/26 12:59:04;;;;;;;4.45;1.30;;;;;;;;;;6151860;23;20014;-82
2022/10/26 13:01:43;;;;;;;3.07;1.50;;;;;;;;;;6152101;23;20005;-82
2022/10/26 13:04:31;;;;;;;4.10;1.55;;;;;;;;;;6200348;23;20398;-82
2022/10/26 13:07:21;;;;;;;2.05;1.42;;;;;;;;;;6242895;23;20443;-81
2022/10/26 13:10:15;;;;;;;3.65;1.70;;;;;;;;;;6242795;23;20079;-81
2022/10/26 13:12:46;;;;;;;3.47;1.70;;;;;;;;;;6242984;23;20011;-81
2022/10/26 13:15:47;;;;;;;4.68;1.73;;;;;;;;;;6244143;22;19997;-81
2022/10/26 13:18:17;;;;;;;5.95;1.88;;;;;;;;;;6238022;22;20008;-83
2022/10/26 13:21:00;;;;;;;3.22;1.52;;;;;;;;;;6217818;23;20000;-81
2022/10/26 13:23:26;;;;;;;2.90;1.60;;;;;;;;;;6243203;23;20053;-81
2022/10/26 13:26:12;;;;;;;13.88;1.92;;;;;;;;;;6243132;23;20004;-82
2022/10/26 13:28:37;;;;;;;4.05;1.50;;;;;;;;;;6243505;22;20046;-81
2022/10/26 13:31:04;;;;;;;4.95;1.70;;;;;;;;;;6244408;23;20004;-81
2022/10/26 13:33:37;;;;;;;7.35;2.00;;;;;;;;;;6243552;23;20348;-81
2022/10/26 13:36:13;;;;;;;6.63;1.80;;;;;;;;;;6243200;23;20005;-81
2022/10/26 13:38:38;;;;;;;5.05;2.00;;;;;;;;;;6243129;23;20023;-83
2022/10/26 13:41:06;;;;;;;3.63;1.80;;;;;;;;;;6218094;23;20435;-82
2022/10/26 13:43:32;;;;;;;2.00;1.67;;;;;;;;;;6244274;23;20000;-81
2022/10/26 13:46:00;;;;;;;5.22;1.95;;;;;;;;;;6246890;23;20000;-81
2022/10/26 13:48:40;;;;;;;4.70;2.15;;;;;;;;;;6247378;22;20024;-80
2022/10/26 13:51:30;;;;;;;8.45;2.10;;;;;;;;;;6253454;23;20024;-80
2022/10/26 13:54:01;;;;;;;17.60;2.58;;;;;;;;;;6272205;22;20007;-80
2022/10/26 13:56:38;;;;;;;5.38;2.13;;;;;;;;;;6270810;23;20001;-83
2022/10/26 13:59:09;;;;;;;4.78;2.20;;;;;;;;;;6246425;23;20004;-82
2022/10/26 14:01:34;;;;;;;6.80;2.33;;;;;;;;;;6268747;23;20004;-81
2022/10/26 14:04:24;;;;;;;5.65;2.17;;;;;;;;;;6248833;22;20007;-80
2022/10/26 14:06:50;;;;;;;5.43;2.50;;;;;;;;;;6217576;23;20095;-81
2022/10/26 14:09:15;;;;;;;5.25;2.75;;;;;;;;;;6242952;23;20465;-81
2022/10/26 14:12:00;;;;;;;5.68;2.70;;;;;;;;;;6242583;23;20004;-81
2022/10/26 14:14:36;;;;;;;10.48;2.53;;;;;;;;;;6242728;23;20320;-82
2022/10/26 14:17:02;;;;;;;9.23;2.90;;;;;;;;;;6245049;22;20031;-82
2022/10/26 14:19:29;;;;;;;7.95;3.00;;;;;;;;;;6244860;23;20004;-82
2022/10/26 14:21:54;;;;;;;7.22;3.30;;;;;;;;;;6219712;23;20011;-82
2022/10/26 14:24:25;;;;;;;8.25;3.30;;;;;;;;;;6246308;22;20000;-82
2022/10/26 14:26:51;;;;;;;8.98;3.58;;;;;;;;;;6195327;23;20111;-82
2022/10/26 14:29:19;;;;;;;14.70;3.42;;;;;;;;;;6246161;22;20419;-82
2022/10/26 14:31:44;;;;;;;10.68;4.15;;;;;;;;;;6244464;23;20027;-82
2022/10/26 14:34:10;;;;;;;13.85;5.63;;;;;;;;;;6244509;23;20427;-82
2022/10/26 14:36:45;;;;;;;9.80;5.50;;;;;;;;;;6219549;23;20054;-81
2022/10/26 14:39:27;;;;;;;9.88;5.15;;;;;;;;;;6220434;23;20084;-82
2022/10/26 14:41:53;;;;;;;14.15;5.97;;;;;;;;;;6244244;23;20012;-81
2022/10/26 14:44:20;;;;;;;13.25;6.32;;;;;;;;;;6244255;23;20405;-81
2022/10/26 14:46:45;;;;;;;13.52;6.45;;;;;;;;;;6244186;23;20347;-81
2022/10/26 14:49:29;;;;;;;15.38;6.20;;;;;;;;;;6245885;22;20008;-81
2022/10/26 14:51:58;;;;;;;16.52;7.10;;;;;;;;;;6245982;22;20003;-81
2022/10/26 14:54:26;;;;;;;19.13;7.10;;;;;;;;;;6245295;22;20011;-81
2022/10/26 14:56:52;;;;;;;18.33;7.47;;;;;;;;;;6245987;22;20023;-81
2022/10/26 14:59:27;;;;;;;20.30;7.28;;;;;;;;;;6245483;23;20001;-81
2022/10/26 15:01:56;;;;;;;23.42;7.28;;;;;;;;;;6244088;23;20023;-81